createdAt,value
2019-04-05T00:01:27.092Z,53.06
2019-04-05T00:03:56.589Z,53.40
2019-04-05T00:18:38.906Z,53.54
2019-04-05T00:21:08.429Z,53.73
2019-04-05T00:23:37.985Z,53.59
2019-04-05T00:26:07.332Z,53.80
2019-04-05T00:28:36.708Z,53.61
2019-04-05T00:31:06.467Z,53.47
2019-04-05T00:33:35.848Z,53.62
2019-04-05T00:36:05.181Z,53.75
2019-04-05T00:38:34.731Z,53.70
2019-04-05T00:41:43.370Z,53.86
2019-04-05T00:47:08.731Z,53.64
2019-04-05T00:49:38.141Z,53.67
2019-04-05T00:52:07.675Z,53.85
2019-04-05T00:54:56.047Z,54.12
2019-04-05T00:57:25.596Z,54.18
2019-04-05T01:02:50.496Z,53.79
2019-04-05T01:05:20.027Z,53.92
2019-04-05T01:10:50.825Z,54.25
2019-04-05T01:18:50.796Z,54.56
2019-04-05T01:22:00.369Z,54.61
2019-04-05T01:30:27.011Z,54.77
2019-04-05T01:32:56.580Z,54.57
2019-04-05T01:35:26.190Z,54.55
2019-04-05T01:37:55.914Z,54.67
2019-04-05T01:41:04.644Z,54.88
2019-04-05T01:49:30.698Z,55.41
2019-04-05T01:52:39.341Z,55.52
2019-04-05T01:55:48.260Z,55.63
2019-04-05T01:58:17.863Z,55.38
2019-04-05T02:00:47.265Z,55.48
2019-04-05T02:03:16.660Z,55.63
2019-04-05T02:06:25.373Z,55.57
2019-04-05T02:08:54.786Z,56.11
2019-04-05T02:11:24.274Z,55.57
2019-04-05T02:17:02.400Z,55.67
2019-04-05T02:19:31.881Z,55.67
2019-04-05T02:22:01.306Z,55.81
2019-04-05T02:24:30.814Z,56.07
2019-04-05T02:27:39.589Z,56.21
2019-04-05T02:30:48.399Z,56.14
2019-04-05T02:54:31.619Z,56.64
2019-04-05T03:03:23.157Z,57.04
2019-04-05T03:06:03.840Z,57.08
2019-04-05T03:12:09.278Z,57.33
2019-04-05T03:20:51.949Z,58.04
2019-04-05T03:26:52.786Z,58.05
2019-04-05T03:38:20.183Z,58.53
2019-04-05T03:43:58.211Z,58.84
2019-04-05T03:47:06.862Z,58.76
2019-04-05T03:50:15.611Z,58.60
2019-04-05T04:08:15.354Z,59.33
2019-04-05T04:55:55.197Z,58.96
2019-04-05T05:04:46.266Z,58.89
2019-04-05T05:13:37.203Z,58.67
2019-04-05T05:43:28.518Z,32.53
2019-04-05T06:01:17.126Z,35.29
2019-04-05T06:03:46.619Z,36.70
2019-04-05T06:06:16.021Z,37.97
2019-04-05T06:08:45.472Z,40.83
2019-04-05T06:11:54.131Z,41.72
2019-04-05T06:14:23.586Z,41.33
2019-04-05T06:16:53.121Z,42.70
2019-04-05T06:20:01.914Z,44.64
2019-04-05T06:22:31.291Z,44.24
2019-04-05T06:27:49.327Z,40.53
2019-04-05T06:30:18.972Z,37.00
2019-04-05T06:32:48.399Z,34.70
2019-04-05T06:38:52.633Z,34.85
2019-04-05T06:44:47.377Z,40.76
2019-04-05T06:47:16.948Z,41.65
2019-04-05T06:52:42.405Z,43.66
2019-04-05T06:55:12.011Z,44.09
2019-04-05T06:57:41.602Z,44.37
2019-04-05T07:03:30.887Z,45.00
2019-04-05T07:06:11.040Z,44.61
2019-04-05T07:08:52.767Z,44.50
2019-04-05T07:11:11.794Z,45.02
2019-04-05T07:13:53.325Z,45.47
2019-04-05T07:16:22.905Z,44.32
2019-04-05T07:18:52.418Z,43.75
2019-04-05T07:21:21.837Z,44.55
2019-04-05T07:23:51.474Z,43.66
2019-04-05T07:26:21.286Z,43.87
2019-04-05T07:29:11.360Z,44.79
2019-04-05T07:31:40.743Z,45.48
2019-04-05T07:37:44.526Z,44.23
2019-04-05T07:43:15.117Z,45.14
2019-04-05T07:45:46.023Z,45.37
2019-04-05T07:48:54.985Z,43.64
2019-04-05T07:51:24.597Z,43.37
2019-04-05T07:54:33.312Z,42.99
2019-04-05T08:00:23.215Z,40.09
2019-04-05T08:18:11.708Z,37.98
2019-04-05T08:23:55.614Z,38.94
2019-04-05T08:26:25.206Z,38.42
2019-04-05T08:28:54.974Z,39.42
2019-04-05T08:31:24.445Z,40.21
2019-04-05T08:33:53.795Z,40.42
2019-04-05T08:36:23.204Z,40.19
2019-04-05T08:38:52.815Z,41.31
2019-04-05T08:44:36.912Z,41.83
2019-04-05T08:47:45.677Z,42.31
2019-04-05T08:50:54.468Z,42.47
2019-04-05T08:56:18.880Z,43.81
2019-04-05T08:58:48.331Z,46.00
2019-04-05T09:01:57.110Z,47.42
2019-04-05T09:04:26.497Z,48.26
2019-04-05T09:07:14.735Z,49.37
2019-04-05T09:09:44.233Z,50.60
2019-04-05T09:12:13.611Z,51.80
2019-04-05T09:15:22.335Z,52.67
2019-04-05T09:21:06.357Z,53.75
2019-04-05T09:24:15.071Z,54.29
2019-04-05T09:27:23.874Z,54.51
2019-04-05T09:33:08.185Z,55.57
2019-04-05T09:38:32.736Z,56.38
2019-04-05T09:44:16.550Z,56.80
2019-04-05T09:47:25.177Z,56.84
2019-04-05T09:49:54.665Z,57.10
2019-04-05T09:52:24.076Z,57.07
2019-04-05T09:54:53.456Z,57.20
2019-04-05T09:57:22.953Z,57.73
2019-04-05T09:59:52.299Z,57.23
2019-04-05T10:02:22.069Z,57.60
2019-04-05T10:05:30.811Z,57.68
2019-04-05T10:08:00.372Z,58.51
2019-04-05T10:10:29.733Z,57.91
2019-04-05T10:12:59.195Z,58.50
2019-04-05T10:18:51.424Z,58.45
2019-04-05T10:24:21.686Z,59.07
2019-04-05T10:26:51.037Z,58.82
2019-04-05T10:29:20.389Z,59.28
2019-04-05T10:31:49.855Z,59.09
2019-04-05T10:34:58.583Z,59.38
2019-04-05T10:37:28.140Z,58.84
2019-04-05T10:39:57.519Z,58.69
2019-04-05T10:43:10.928Z,59.43
2019-04-05T10:45:40.448Z,59.23
2019-04-05T10:51:44.209Z,59.39
2019-04-05T10:54:13.788Z,60.02
2019-04-05T10:56:43.171Z,60.96
2019-04-05T10:59:12.631Z,59.78
2019-04-05T11:01:42.072Z,59.59
2019-04-05T11:04:11.528Z,58.96
2019-04-05T11:09:36.226Z,59.15
2019-04-05T11:15:31.024Z,59.17
2019-04-05T11:18:00.623Z,59.08
2019-04-05T11:21:09.415Z,59.47
2019-04-05T11:23:38.985Z,59.77
2019-04-05T11:26:08.349Z,57.36
2019-04-05T11:28:37.962Z,57.84
2019-04-05T11:40:44.114Z,59.35
2019-04-05T11:43:26.923Z,60.09
2019-04-05T11:46:35.601Z,60.68
2019-04-05T11:58:08.825Z,61.93
2019-04-05T12:04:12.444Z,62.17
2019-04-05T12:06:41.970Z,63.00
2019-04-05T12:09:11.476Z,62.35
2019-04-05T12:11:40.978Z,62.69
2019-04-05T12:14:10.496Z,63.04
2019-04-05T12:19:34.676Z,63.80
2019-04-05T12:22:05.290Z,63.83
2019-04-05T12:24:47.713Z,64.01
2019-04-05T12:27:17.217Z,65.13
2019-04-05T12:29:46.571Z,65.52
2019-04-05T12:32:18.777Z,65.20
2019-04-05T12:34:49.481Z,64.71
2019-04-05T12:37:21.825Z,64.86
2019-04-05T12:39:50.759Z,65.77
2019-04-05T12:51:49.877Z,65.87
2019-04-05T12:54:30.901Z,65.63
2019-04-05T12:57:00.437Z,64.75
2019-04-05T13:03:03.140Z,65.94
2019-04-05T13:05:32.591Z,65.28
2019-04-05T13:08:02.204Z,65.62
2019-04-05T13:13:45.949Z,65.59
2019-04-05T13:19:23.976Z,66.07
2019-04-05T13:25:18.065Z,66.35
2019-04-05T13:27:47.523Z,66.66
2019-04-05T13:30:56.193Z,66.26
2019-04-05T13:34:06.614Z,66.29
2019-04-05T13:36:36.109Z,66.25
2019-04-05T13:39:44.790Z,66.53
2019-04-05T13:42:14.345Z,66.80
2019-04-05T13:53:54.375Z,66.77
2019-04-05T13:56:23.841Z,66.37
2019-04-05T13:58:53.240Z,65.97
2019-04-05T14:04:20.677Z,66.44
2019-04-05T14:13:05.240Z,65.88
2019-04-05T14:15:34.867Z,66.61
2019-04-05T14:18:49.370Z,66.09
2019-04-05T14:27:34.781Z,66.00
2019-04-05T14:30:03.097Z,65.26
2019-04-05T14:32:33.035Z,65.99
2019-04-05T14:35:42.637Z,65.10
2019-04-05T14:41:34.415Z,65.47
2019-04-05T14:44:19.903Z,65.39
2019-04-05T14:46:49.606Z,65.76
2019-04-05T14:49:38.026Z,65.86
2019-04-05T14:52:07.431Z,66.02
2019-04-05T14:54:36.812Z,65.53
2019-04-05T14:57:06.366Z,65.40
2019-04-05T14:59:35.780Z,65.97
2019-04-05T15:11:22.292Z,65.95
2019-04-05T15:14:10.728Z,66.23
2019-04-05T15:16:40.271Z,66.75
2019-04-05T15:22:18.467Z,66.57
2019-04-05T15:24:47.868Z,66.59
2019-04-05T15:27:17.233Z,66.26
2019-04-05T15:29:46.618Z,66.47
2019-04-05T15:32:16.063Z,66.46
2019-04-05T15:34:45.697Z,66.03
2019-04-05T15:37:16.161Z,66.73
2019-04-05T15:39:45.900Z,66.33
2019-04-05T15:42:15.271Z,66.26
2019-04-05T15:44:44.753Z,66.65
2019-04-05T15:47:14.208Z,66.32
2019-04-05T15:49:43.633Z,66.51
2019-04-05T15:52:19.049Z,66.90
2019-04-05T15:54:44.180Z,66.49
2019-04-05T15:57:13.550Z,66.71
2019-04-05T15:59:45.057Z,66.70
2019-04-05T16:02:14.133Z,66.25
2019-04-05T16:04:43.471Z,66.32
2019-04-05T16:07:12.835Z,66.65
2019-04-05T16:09:42.202Z,66.63
2019-04-05T16:12:11.543Z,66.22
2019-04-05T16:14:40.972Z,66.21
2019-04-05T16:17:12.548Z,66.88
2019-04-05T16:19:41.793Z,66.85
2019-04-05T16:22:11.214Z,66.94
2019-04-05T16:24:40.741Z,66.26
2019-04-05T16:27:10.088Z,66.13
2019-04-05T16:29:39.665Z,66.21
2019-04-05T16:32:09.041Z,66.82
2019-04-05T16:34:38.406Z,66.31
2019-04-05T16:37:08.011Z,66.22
2019-04-05T16:39:37.430Z,66.89
2019-04-05T16:42:10.003Z,66.92
2019-04-05T16:44:38.005Z,66.60
2019-04-05T16:47:07.383Z,67.34
2019-04-05T16:49:36.775Z,67.18
2019-04-05T16:52:06.268Z,67.66
2019-04-05T16:54:35.657Z,67.54
2019-04-05T16:57:05.139Z,67.57
2019-04-05T16:59:34.571Z,68.21
2019-04-05T17:02:04.002Z,67.71
2019-04-05T17:04:33.466Z,67.84
2019-04-05T17:07:02.855Z,68.01
2019-04-05T17:09:32.268Z,67.60
2019-04-05T17:12:01.700Z,68.09
2019-04-05T17:14:31.118Z,68.27
2019-04-05T17:17:01.037Z,68.44
2019-04-05T17:19:30.537Z,69.00
2019-04-05T17:21:59.972Z,69.07
2019-04-05T17:24:29.486Z,69.59
2019-04-05T17:26:58.952Z,69.21
2019-04-05T17:29:28.298Z,69.52
2019-04-05T17:31:57.947Z,69.93
2019-04-05T17:34:28.189Z,70.29
2019-04-05T17:36:57.873Z,69.44
2019-04-05T17:43:08.772Z,70.51
2019-04-05T17:49:26.931Z,70.50
2019-04-05T17:51:56.424Z,71.46
2019-04-05T17:54:26.853Z,71.56
2019-04-05T17:56:56.287Z,72.08
2019-04-05T17:59:25.879Z,71.43
2019-04-05T18:01:55.249Z,71.38
2019-04-05T18:04:24.739Z,71.80
2019-04-05T18:06:54.072Z,72.43
2019-04-05T18:09:23.475Z,72.86
2019-04-05T18:11:52.878Z,72.63
2019-04-05T18:14:24.450Z,72.62
2019-04-05T18:16:53.883Z,72.51
2019-04-05T18:19:23.304Z,74.05
2019-04-05T18:21:52.674Z,73.85
2019-04-05T18:24:22.437Z,74.19
2019-04-05T18:26:52.031Z,74.02
2019-04-05T18:29:21.607Z,73.50
2019-04-05T18:31:50.990Z,74.81
2019-04-05T18:34:20.585Z,74.09
2019-04-05T18:36:50.384Z,73.98
2019-04-05T18:39:19.732Z,74.37
2019-04-05T18:41:49.136Z,74.65
2019-04-05T18:44:18.562Z,75.01
2019-04-05T18:46:47.999Z,75.14
2019-04-05T18:49:17.353Z,74.25
2019-04-05T18:51:46.832Z,74.05
2019-04-05T18:54:16.217Z,73.96
2019-04-05T18:56:45.975Z,73.87
2019-04-05T18:59:15.382Z,74.64
2019-04-05T19:01:44.790Z,74.27
2019-04-05T19:04:14.149Z,74.12
2019-04-05T19:06:43.535Z,74.21
2019-04-05T19:09:12.891Z,74.38
2019-04-05T19:11:42.261Z,74.50
2019-04-05T19:14:11.663Z,74.35
2019-04-05T19:16:40.997Z,74.25
2019-04-05T19:19:10.414Z,74.36
2019-04-05T19:21:40.181Z,74.11
2019-04-05T19:24:09.921Z,74.38
2019-04-05T19:26:40.150Z,74.12
2019-04-05T19:29:09.666Z,74.11
2019-04-05T19:50:22.422Z,74.82
2019-04-05T19:52:51.949Z,74.72
2019-04-05T19:55:21.394Z,74.77
2019-04-05T19:57:50.809Z,74.72
2019-04-05T20:00:20.348Z,75.21
2019-04-05T20:02:49.684Z,74.66
2019-04-05T20:05:19.378Z,74.83
2019-04-05T20:07:48.724Z,74.61
2019-04-05T20:10:57.489Z,74.86
2019-04-05T20:13:26.896Z,74.62
2019-04-05T20:15:56.224Z,74.38
2019-04-05T20:18:25.939Z,74.17
2019-04-05T20:20:55.641Z,74.10
2019-04-05T20:23:25.008Z,74.39
2019-04-05T20:25:54.487Z,74.77
2019-04-05T20:28:23.980Z,74.84
2019-04-05T20:31:05.327Z,74.47
2019-04-05T20:33:34.856Z,74.63
2019-04-05T20:36:04.356Z,75.01
2019-04-05T20:38:33.957Z,75.19
2019-04-05T20:41:03.353Z,74.83
2019-04-05T20:43:35.863Z,74.69
2019-04-05T20:46:05.321Z,74.79
2019-04-05T20:48:34.679Z,74.96
2019-04-05T20:51:04.409Z,74.58
2019-04-05T20:53:33.751Z,74.40
2019-04-05T20:56:03.174Z,74.21
2019-04-05T20:58:32.532Z,74.44
2019-04-05T21:01:21.033Z,74.33
2019-04-05T21:03:50.586Z,74.32
2019-04-05T21:06:40.584Z,74.96
2019-04-05T21:09:10.158Z,75.24
2019-04-05T21:11:39.609Z,74.93
2019-04-05T21:14:09.187Z,75.91
2019-04-05T21:16:38.747Z,75.87
2019-04-05T21:19:08.165Z,76.08
2019-04-05T21:21:37.679Z,76.79
2019-04-05T21:24:07.114Z,76.56
2019-04-05T21:26:36.561Z,76.47
2019-04-05T21:29:06.007Z,76.28
2019-04-05T21:36:30.673Z,75.69
2019-04-05T21:39:00.136Z,75.86
2019-04-05T21:41:29.630Z,75.96
2019-04-05T21:43:59.073Z,76.18
2019-04-05T21:46:28.408Z,75.64
2019-04-05T21:48:57.753Z,76.09
2019-04-05T21:51:27.228Z,76.51
2019-04-05T21:53:56.623Z,76.59
2019-04-05T21:56:26.050Z,76.88
2019-04-05T21:58:55.441Z,76.53
2019-04-05T22:01:26.075Z,76.75
2019-04-05T22:07:01.736Z,76.39
2019-04-05T22:09:31.355Z,76.12
2019-04-05T22:12:01.025Z,76.00
2019-04-05T22:14:30.422Z,75.81
2019-04-05T22:16:59.796Z,75.84
2019-04-05T22:19:29.150Z,76.06
2019-04-05T22:21:58.562Z,76.21
2019-04-05T22:24:28.167Z,76.12
2019-04-05T22:27:36.915Z,76.23
2019-04-05T22:35:48.027Z,76.47
2019-04-05T22:38:17.700Z,76.37
2019-04-05T22:40:47.372Z,76.31
2019-04-05T22:43:35.812Z,76.55
2019-04-05T22:49:14.049Z,76.59
2019-04-05T22:51:44.246Z,76.47
2019-04-05T22:57:48.487Z,76.73
2019-04-05T23:06:45.685Z,76.36
2019-04-05T23:09:16.224Z,77.55
2019-04-05T23:11:45.572Z,77.22
2019-04-05T23:14:15.377Z,77.34
2019-04-05T23:17:24.349Z,77.12
2019-04-05T23:19:53.788Z,77.01
2019-04-05T23:22:23.111Z,76.98
2019-04-05T23:24:52.666Z,76.90
2019-04-05T23:27:22.299Z,77.13
2019-04-05T23:29:51.703Z,77.15
2019-04-05T23:32:21.135Z,77.16
2019-04-05T23:38:11.021Z,77.23
2019-04-05T23:46:53.118Z,77.07
2019-04-05T23:52:36.908Z,76.89
2019-04-05T23:55:33.061Z,77.04
2019-04-05T23:57:59.654Z,77.34
